createdAt,value
2023-01-17T00:02:06.364Z,10.81
2023-01-17T00:04:53.400Z,10.82
2023-01-17T00:07:41.388Z,10.84
2023-01-17T00:10:19.546Z,10.84
2023-01-17T00:12:50.217Z,10.85
2023-01-17T00:15:19.999Z,10.86
2023-01-17T00:17:49.077Z,10.89
2023-01-17T00:20:38.408Z,10.90
2023-01-17T00:23:36.993Z,10.93
2023-01-17T00:26:06.850Z,10.93
2023-01-17T00:28:36.896Z,10.94
2023-01-17T00:31:05.919Z,10.94
2023-01-17T00:33:33.558Z,10.93
2023-01-17T00:36:01.769Z,10.88
2023-01-17T00:38:31.698Z,10.84
2023-01-17T00:41:04.613Z,10.86
2023-01-17T00:43:50.393Z,10.83
2023-01-17T00:46:36.033Z,10.78
2023-01-17T00:49:21.342Z,10.73
2023-01-17T00:52:06.781Z,10.68
2023-01-17T00:54:52.361Z,10.63
2023-01-17T00:57:37.836Z,10.52
2023-01-17T01:00:24.214Z,10.41
2023-01-17T01:03:09.863Z,10.38
2023-01-17T01:05:56.657Z,10.44
2023-01-17T01:08:46.268Z,10.50
2023-01-17T01:11:38.775Z,10.53
2023-01-17T01:14:26.232Z,10.52
2023-01-17T01:17:11.775Z,10.58
2023-01-17T01:19:57.149Z,10.62
2023-01-17T01:22:42.860Z,10.57
2023-01-17T01:25:28.247Z,10.48
2023-01-17T01:28:25.654Z,10.36
2023-01-17T01:31:11.090Z,10.21
2023-01-17T01:33:38.107Z,10.08
2023-01-17T01:36:08.001Z,9.97
2023-01-17T01:38:35.265Z,9.86
2023-01-17T01:41:03.571Z,9.78
2023-01-17T01:43:53.178Z,9.68
2023-01-17T01:46:35.820Z,9.63
2023-01-17T01:49:21.950Z,9.68
2023-01-17T01:52:01.697Z,9.65
2023-01-17T01:54:35.602Z,9.64
2023-01-17T01:57:08.261Z,9.63
2023-01-17T01:59:45.233Z,9.56
2023-01-17T02:02:12.354Z,9.48
2023-01-17T02:04:40.035Z,9.37
2023-01-17T02:07:13.045Z,9.31
2023-01-17T02:09:39.907Z,9.29
2023-01-17T02:12:09.138Z,9.35
2023-01-17T02:14:35.949Z,9.45
2023-01-17T02:17:15.271Z,9.48
2023-01-17T02:20:02.090Z,9.62
2023-01-17T02:22:41.808Z,9.60
2023-01-17T02:25:46.396Z,9.63
2023-01-17T02:28:36.448Z,9.59
2023-01-17T02:31:15.993Z,9.71
2023-01-17T02:34:12.368Z,9.80
2023-01-17T02:36:49.606Z,9.93
2023-01-17T02:39:22.262Z,9.93
2023-01-17T02:42:00.982Z,9.86
2023-01-17T02:44:27.825Z,9.80
2023-01-17T02:46:59.330Z,9.76
2023-01-17T02:49:30.418Z,9.75
2023-01-17T02:52:00.014Z,9.76
2023-01-17T02:54:35.212Z,9.86
2023-01-17T02:57:22.238Z,9.92
2023-01-17T03:00:18.510Z,9.99
2023-01-17T03:03:07.747Z,10.06
2023-01-17T03:05:44.960Z,10.18
2023-01-17T03:08:13.511Z,10.29
2023-01-17T03:10:42.585Z,10.37
2023-01-17T03:13:09.398Z,10.42
2023-01-17T03:15:36.926Z,10.44
2023-01-17T03:18:08.314Z,10.28
2023-01-17T03:20:35.226Z,10.26
2023-01-17T03:23:02.081Z,10.10
2023-01-17T03:25:28.833Z,10.00
2023-01-17T03:27:57.720Z,9.96
2023-01-17T03:30:24.812Z,9.91
2023-01-17T03:32:51.745Z,10.00
2023-01-17T03:35:19.523Z,10.10
2023-01-17T03:37:46.458Z,10.15
2023-01-17T03:40:13.521Z,10.23
2023-01-17T03:42:40.298Z,10.23
2023-01-17T03:45:08.525Z,10.24
2023-01-17T03:47:36.627Z,10.24
2023-01-17T03:50:04.694Z,10.21
2023-01-17T03:52:32.462Z,10.19
2023-01-17T03:54:59.669Z,10.15
2023-01-17T03:57:28.147Z,10.15
2023-01-17T03:59:55.861Z,10.14
2023-01-17T04:02:24.800Z,10.13
2023-01-17T04:04:51.595Z,10.13
2023-01-17T04:07:18.409Z,10.10
2023-01-17T04:09:45.832Z,10.08
2023-01-17T04:12:13.708Z,10.06
2023-01-17T04:14:41.230Z,10.01
2023-01-17T04:17:12.481Z,9.96
2023-01-17T04:19:39.956Z,9.90
2023-01-17T04:22:08.032Z,9.84
2023-01-17T04:24:35.032Z,9.78
2023-01-17T04:27:02.517Z,9.74
2023-01-17T04:29:30.075Z,9.67
2023-01-17T04:31:56.981Z,9.64
2023-01-17T04:34:23.861Z,9.59
2023-01-17T04:36:51.259Z,9.56
2023-01-17T04:39:18.721Z,9.53
2023-01-17T04:41:45.515Z,9.47
2023-01-17T04:44:12.338Z,9.38
2023-01-17T04:46:39.738Z,9.32
2023-01-17T04:49:07.135Z,9.27
2023-01-17T04:51:33.870Z,9.24
2023-01-17T04:54:00.708Z,9.22
2023-01-17T04:56:28.231Z,9.19
2023-01-17T04:58:58.189Z,9.15
2023-01-17T05:01:27.134Z,9.15
2023-01-17T05:03:53.958Z,9.14
2023-01-17T05:06:21.374Z,9.11
2023-01-17T05:08:48.483Z,9.11
2023-01-17T05:11:15.561Z,9.09
2023-01-17T05:13:42.341Z,9.09
2023-01-17T05:16:10.447Z,9.07
2023-01-17T05:18:37.758Z,9.05
2023-01-17T05:21:05.922Z,9.03
2023-01-17T05:23:33.250Z,8.89
2023-01-17T05:26:00.134Z,8.80
2023-01-17T05:28:27.453Z,8.81
2023-01-17T05:30:55.379Z,8.80
2023-01-17T05:33:22.647Z,8.85
2023-01-17T05:35:50.298Z,8.87
2023-01-17T05:38:18.891Z,8.89
2023-01-17T05:40:45.715Z,8.93
2023-01-17T05:43:13.014Z,8.94
2023-01-17T05:45:41.066Z,8.93
2023-01-17T05:48:09.178Z,8.94
2023-01-17T05:50:38.053Z,8.93
2023-01-17T05:53:12.292Z,8.91
2023-01-17T05:55:40.216Z,8.82
2023-01-17T05:58:09.044Z,8.76
2023-01-17T06:00:37.441Z,8.74
2023-01-17T06:03:05.100Z,8.72
2023-01-17T06:05:32.269Z,8.74
2023-01-17T06:07:59.729Z,8.76
2023-01-17T06:10:28.356Z,8.75
2023-01-17T06:13:14.107Z,8.75
2023-01-17T06:15:41.327Z,8.76
2023-01-17T06:18:13.670Z,8.75
2023-01-17T06:20:41.979Z,8.73
2023-01-17T06:23:12.580Z,8.67
2023-01-17T06:25:43.743Z,8.60
2023-01-17T06:28:13.488Z,8.53
2023-01-17T06:30:40.736Z,8.50
2023-01-17T06:33:08.324Z,8.49
2023-01-17T06:35:38.868Z,8.51
2023-01-17T06:38:07.124Z,8.39
2023-01-17T06:40:33.943Z,8.33
2023-01-17T06:43:03.297Z,8.42
2023-01-17T06:45:32.400Z,8.43
2023-01-17T06:48:04.753Z,8.44
2023-01-17T06:50:32.563Z,8.45
2023-01-17T06:53:06.699Z,8.44
2023-01-17T06:55:35.134Z,8.45
2023-01-17T06:58:03.332Z,8.42
2023-01-17T07:00:32.362Z,8.38
2023-01-17T07:02:59.496Z,8.38
2023-01-17T07:05:29.135Z,8.36
2023-01-17T07:07:57.627Z,8.35
2023-01-17T07:10:25.171Z,8.31
2023-01-17T07:12:59.792Z,8.28
2023-01-17T07:15:28.267Z,8.28
2023-01-17T07:17:55.023Z,8.24
2023-01-17T07:20:21.906Z,8.21
2023-01-17T07:22:50.218Z,8.18
2023-01-17T07:25:17.179Z,8.22
2023-01-17T07:27:44.109Z,8.22
2023-01-17T07:30:12.561Z,8.21
2023-01-17T07:32:39.401Z,8.24
2023-01-17T07:35:07.664Z,8.27
2023-01-17T07:37:34.837Z,8.32
2023-01-17T07:40:02.590Z,8.39
2023-01-17T07:42:30.997Z,8.47
2023-01-17T07:44:57.794Z,8.57
2023-01-17T07:47:25.052Z,8.63
2023-01-17T07:49:53.247Z,8.82
2023-01-17T07:52:20.025Z,9.11
2023-01-17T07:54:46.883Z,9.34
2023-01-17T07:57:15.091Z,9.49
2023-01-17T07:59:41.892Z,9.50
2023-01-17T08:02:21.054Z,9.36
2023-01-17T08:04:49.124Z,9.03
2023-01-17T08:07:17.071Z,9.09
2023-01-17T08:09:44.809Z,9.31
2023-01-17T08:12:11.619Z,9.41
2023-01-17T08:14:39.009Z,9.49
2023-01-17T08:17:07.079Z,9.65
2023-01-17T08:19:33.907Z,9.63
2023-01-17T08:22:01.264Z,9.70
2023-01-17T08:24:28.423Z,9.75
2023-01-17T08:26:56.348Z,9.71
2023-01-17T08:29:24.713Z,9.77
2023-01-17T08:31:51.681Z,9.88
2023-01-17T08:34:18.575Z,9.97
2023-01-17T08:36:48.438Z,10.16
2023-01-17T08:39:15.864Z,10.55
2023-01-17T08:41:43.318Z,10.90
2023-01-17T08:44:10.247Z,11.23
2023-01-17T08:46:39.709Z,11.52
2023-01-17T08:49:06.495Z,11.74
2023-01-17T08:51:33.630Z,12.03
2023-01-17T08:54:01.912Z,12.36
2023-01-17T08:56:29.411Z,12.59
2023-01-17T08:58:56.556Z,12.73
2023-01-17T09:01:24.516Z,12.76
2023-01-17T09:03:52.007Z,12.69
2023-01-17T09:06:19.427Z,12.61
2023-01-17T09:08:48.006Z,12.48
2023-01-17T09:11:17.805Z,12.44
2023-01-17T09:13:44.795Z,12.37
2023-01-17T09:16:12.626Z,12.36
2023-01-17T09:18:39.963Z,12.40
2023-01-17T09:21:26.935Z,12.41
2023-01-17T09:23:55.456Z,12.50
2023-01-17T09:26:24.696Z,12.53
2023-01-17T09:28:52.819Z,12.48
2023-01-17T09:31:21.799Z,12.51
2023-01-17T09:33:51.657Z,12.62
2023-01-17T09:36:18.947Z,12.92
2023-01-17T09:38:47.550Z,13.23
2023-01-17T09:41:28.710Z,13.61
2023-01-17T09:44:34.984Z,13.80
2023-01-17T09:47:14.962Z,13.92
2023-01-17T09:49:45.542Z,14.14
2023-01-17T09:52:16.783Z,14.37
2023-01-17T09:54:47.105Z,14.50
2023-01-17T09:57:28.934Z,14.56
2023-01-17T10:00:17.909Z,14.68
2023-01-17T10:02:54.777Z,15.04
2023-01-17T10:05:40.593Z,15.47
2023-01-17T10:08:26.414Z,15.92
2023-01-17T10:11:22.344Z,16.20
2023-01-17T10:13:54.903Z,16.42
2023-01-17T10:16:44.144Z,16.46
2023-01-17T10:19:29.837Z,16.65
2023-01-17T10:21:59.988Z,16.45
2023-01-17T10:25:01.494Z,16.57
2023-01-17T10:27:42.305Z,16.67
2023-01-17T10:30:27.537Z,16.64
2023-01-17T10:32:58.194Z,16.35
2023-01-17T10:35:32.409Z,16.20
2023-01-17T10:38:04.586Z,16.02
2023-01-17T10:40:31.880Z,15.83
2023-01-17T10:43:12.530Z,15.82
2023-01-17T10:45:51.440Z,15.91
2023-01-17T10:48:36.520Z,16.02
2023-01-17T10:51:16.459Z,16.18
2023-01-17T10:54:07.696Z,16.12
2023-01-17T10:56:35.257Z,16.14
2023-01-17T10:59:34.386Z,16.30
2023-01-17T11:02:07.726Z,16.24
2023-01-17T11:04:41.217Z,16.33
2023-01-17T11:07:20.316Z,16.28
2023-01-17T11:09:50.776Z,16.27
2023-01-17T11:12:35.588Z,16.22
2023-01-17T11:15:05.594Z,16.30
2023-01-17T11:17:35.423Z,16.37
2023-01-17T11:20:30.015Z,16.47
2023-01-17T11:23:22.753Z,16.57
2023-01-17T11:25:58.607Z,16.63
2023-01-17T11:28:33.072Z,16.74
2023-01-17T11:31:08.669Z,16.84
2023-01-17T11:33:45.437Z,16.91
2023-01-17T11:36:16.624Z,17.00
2023-01-17T11:38:56.555Z,17.02
2023-01-17T11:41:25.789Z,17.03
2023-01-17T11:43:58.181Z,17.05
2023-01-17T11:46:26.213Z,17.05
2023-01-17T11:49:01.342Z,17.17
2023-01-17T11:51:34.000Z,17.18
2023-01-17T11:54:16.068Z,17.32
2023-01-17T11:56:47.431Z,17.16
2023-01-17T11:59:23.797Z,17.22
2023-01-17T12:02:03.835Z,17.37
2023-01-17T12:04:44.887Z,17.41
2023-01-17T12:07:27.158Z,17.44
2023-01-17T12:10:12.944Z,17.45
2023-01-17T12:13:19.492Z,17.49
2023-01-17T12:16:29.203Z,17.31
2023-01-17T12:18:55.940Z,17.20
2023-01-17T12:21:46.733Z,17.10
2023-01-17T12:24:29.105Z,16.92
2023-01-17T12:27:08.102Z,16.90
2023-01-17T12:30:02.418Z,16.84
2023-01-17T12:33:12.249Z,17.01
2023-01-17T12:35:45.978Z,16.85
2023-01-17T12:38:31.847Z,16.78
2023-01-17T12:41:07.546Z,16.64
2023-01-17T12:43:41.164Z,16.75
2023-01-17T12:46:24.710Z,16.76
2023-01-17T12:48:56.187Z,16.78
2023-01-17T12:51:36.754Z,16.86
2023-01-17T12:54:10.032Z,16.90
2023-01-17T12:56:43.657Z,17.06
2023-01-17T12:59:19.967Z,17.16
2023-01-17T13:01:58.824Z,17.14
2023-01-17T13:04:58.714Z,17.11
2023-01-17T13:07:50.799Z,17.00
2023-01-17T13:10:29.261Z,16.96
2023-01-17T13:13:03.323Z,16.99
2023-01-17T13:15:38.330Z,16.90
2023-01-17T13:18:14.205Z,16.89
2023-01-17T13:20:50.376Z,16.85
2023-01-17T13:23:51.193Z,16.78
2023-01-17T13:26:28.697Z,16.78
2023-01-17T13:29:03.755Z,16.73
2023-01-17T13:31:34.095Z,16.72
2023-01-17T13:34:19.641Z,16.64
2023-01-17T13:37:04.854Z,16.72
2023-01-17T13:39:37.494Z,16.76
2023-01-17T13:42:56.665Z,16.75
2023-01-17T13:45:32.803Z,16.67
2023-01-17T13:48:18.991Z,16.56
2023-01-17T13:51:03.605Z,16.63
2023-01-17T13:53:34.589Z,16.49
2023-01-17T13:56:13.457Z,16.55
2023-01-17T13:58:54.675Z,16.55
2023-01-17T14:01:24.653Z,16.62
2023-01-17T14:03:52.282Z,16.60
2023-01-17T14:06:35.396Z,16.57
2023-01-17T14:09:11.473Z,16.63
2023-01-17T14:12:22.934Z,16.71
2023-01-17T14:14:52.540Z,16.79
2023-01-17T14:17:23.232Z,16.76
2023-01-17T14:19:54.464Z,16.57
2023-01-17T14:22:21.225Z,16.51
2023-01-17T14:25:04.117Z,16.40
2023-01-17T14:27:39.274Z,16.15
2023-01-17T14:30:17.302Z,15.98
2023-01-17T14:33:02.889Z,15.98
2023-01-17T14:35:35.239Z,15.89
2023-01-17T14:38:03.300Z,15.77
2023-01-17T14:40:32.658Z,15.72
2023-01-17T14:43:12.372Z,15.76
2023-01-17T14:45:39.938Z,15.67
2023-01-17T14:48:15.928Z,15.61
2023-01-17T14:50:45.438Z,15.59
2023-01-17T14:53:16.180Z,15.45
2023-01-17T14:55:49.328Z,15.36
2023-01-17T14:58:42.783Z,15.34
2023-01-17T15:01:13.779Z,15.30
2023-01-17T15:03:50.763Z,15.24
2023-01-17T15:06:21.795Z,15.19
2023-01-17T15:08:50.065Z,15.17
2023-01-17T15:11:33.192Z,15.11
2023-01-17T15:14:05.805Z,15.07
2023-01-17T15:16:36.736Z,15.04
2023-01-17T15:19:14.439Z,14.97
2023-01-17T15:21:44.029Z,14.93
2023-01-17T15:24:29.470Z,14.92
2023-01-17T15:26:57.555Z,14.85
2023-01-17T15:29:30.675Z,14.81
2023-01-17T15:32:00.049Z,14.86
2023-01-17T15:34:36.920Z,14.87
2023-01-17T15:37:29.912Z,14.88
2023-01-17T15:40:18.004Z,14.87
2023-01-17T15:42:59.482Z,14.89
2023-01-17T15:45:32.628Z,14.87
2023-01-17T15:48:42.003Z,14.88
2023-01-17T15:51:13.464Z,14.89
2023-01-17T15:53:43.082Z,14.91
2023-01-17T15:56:22.625Z,14.92
2023-01-17T15:58:50.458Z,14.89
2023-01-17T16:01:25.636Z,14.88
2023-01-17T16:03:54.800Z,14.85
2023-01-17T16:06:45.814Z,14.83
2023-01-17T16:09:23.213Z,14.78
2023-01-17T16:11:50.289Z,14.73
2023-01-17T16:14:18.801Z,14.66
2023-01-17T16:16:54.056Z,14.58
2023-01-17T16:19:21.502Z,14.52
2023-01-17T16:21:48.529Z,14.42
2023-01-17T16:24:16.063Z,14.37
2023-01-17T16:26:43.340Z,14.30
2023-01-17T16:29:10.286Z,14.26
2023-01-17T16:31:37.192Z,14.22
2023-01-17T16:34:12.486Z,14.15
2023-01-17T16:36:39.945Z,14.07
2023-01-17T16:39:07.762Z,13.94
2023-01-17T16:41:34.634Z,13.86
2023-01-17T16:44:05.357Z,13.67
2023-01-17T16:46:39.258Z,13.59
2023-01-17T16:49:11.925Z,13.53
2023-01-17T16:51:39.392Z,13.39
2023-01-17T16:54:06.592Z,13.33
2023-01-17T16:56:33.955Z,13.26
2023-01-17T16:59:01.184Z,13.23
2023-01-17T17:01:29.967Z,13.14
2023-01-17T17:03:56.816Z,13.07
2023-01-17T17:06:24.262Z,13.01
2023-01-17T17:08:52.671Z,12.96
2023-01-17T17:11:22.835Z,12.93
2023-01-17T17:13:51.663Z,12.94
2023-01-17T17:16:29.868Z,12.95
2023-01-17T17:19:02.661Z,12.90
2023-01-17T17:21:31.837Z,12.85
2023-01-17T17:24:01.203Z,12.86
2023-01-17T17:26:32.955Z,12.82
2023-01-17T17:28:59.802Z,12.89
2023-01-17T17:31:28.027Z,12.91
2023-01-17T17:34:00.726Z,12.92
2023-01-17T17:36:27.945Z,12.96
2023-01-17T17:38:59.712Z,12.97
2023-01-17T17:41:30.410Z,12.96
2023-01-17T17:43:57.769Z,12.94
2023-01-17T17:46:28.049Z,12.94
2023-01-17T17:48:56.544Z,12.96
2023-01-17T17:51:32.322Z,12.90
2023-01-17T17:54:02.511Z,12.88
2023-01-17T17:56:31.756Z,12.88
2023-01-17T17:58:59.867Z,12.90
2023-01-17T18:01:28.024Z,12.93
2023-01-17T18:03:57.870Z,12.95
2023-01-17T18:06:25.287Z,13.00
2023-01-17T18:08:53.107Z,13.01
2023-01-17T18:11:26.950Z,13.03
2023-01-17T18:13:56.754Z,13.00
2023-01-17T18:16:33.579Z,13.01
2023-01-17T18:19:01.117Z,13.02
2023-01-17T18:21:32.465Z,13.06
2023-01-17T18:24:05.994Z,13.05
2023-01-17T18:26:35.907Z,13.03
2023-01-17T18:29:05.126Z,13.03
2023-01-17T18:31:32.479Z,13.06
2023-01-17T18:34:01.925Z,13.09
2023-01-17T18:36:29.371Z,13.07
2023-01-17T18:38:56.936Z,13.08
2023-01-17T18:41:29.364Z,13.03
2023-01-17T18:43:57.926Z,13.00
2023-01-17T18:46:26.206Z,12.94
2023-01-17T18:48:55.936Z,12.90
2023-01-17T18:51:23.031Z,12.86
2023-01-17T18:53:50.594Z,12.82
2023-01-17T18:56:23.628Z,12.84
2023-01-17T18:58:51.042Z,12.80
2023-01-17T19:01:28.250Z,12.79
2023-01-17T19:03:57.913Z,12.81
2023-01-17T19:06:27.959Z,12.81
2023-01-17T19:08:55.360Z,12.81
2023-01-17T19:11:24.086Z,12.79
2023-01-17T19:13:52.991Z,12.78
2023-01-17T19:16:28.587Z,12.77
2023-01-17T19:18:58.359Z,12.74
2023-01-17T19:21:27.618Z,12.61
2023-01-17T19:23:56.592Z,12.46
2023-01-17T19:26:26.911Z,12.37
2023-01-17T19:28:56.327Z,12.37
2023-01-17T19:31:31.563Z,12.31
2023-01-17T19:34:00.054Z,12.27
2023-01-17T19:36:31.890Z,12.20
2023-01-17T19:39:04.796Z,12.20
2023-01-17T19:41:38.350Z,12.17
2023-01-17T19:44:09.566Z,12.12
2023-01-17T19:46:37.476Z,12.06
2023-01-17T19:49:07.254Z,12.04
2023-01-17T19:51:34.795Z,12.08
2023-01-17T19:54:04.166Z,12.14
2023-01-17T19:56:31.422Z,12.19
2023-01-17T19:59:01.359Z,12.25
2023-01-17T20:01:31.153Z,12.29
2023-01-17T20:03:59.917Z,12.33
2023-01-17T20:06:31.072Z,12.40
2023-01-17T20:08:58.231Z,12.37
2023-01-17T20:11:26.863Z,12.38
2023-01-17T20:13:59.073Z,12.29
2023-01-17T20:16:29.412Z,12.18
2023-01-17T20:19:03.106Z,12.12
2023-01-17T20:21:33.009Z,12.13
2023-01-17T20:24:03.997Z,12.19
2023-01-17T20:26:37.389Z,12.28
2023-01-17T20:29:13.505Z,12.33
2023-01-17T20:31:43.011Z,12.41
2023-01-17T20:34:12.347Z,12.44
2023-01-17T20:36:41.958Z,12.47
2023-01-17T20:39:11.725Z,12.45
2023-01-17T20:41:41.702Z,12.42
2023-01-17T20:44:15.696Z,12.43
2023-01-17T20:46:44.426Z,12.51
2023-01-17T20:49:15.867Z,12.52
2023-01-17T20:51:44.598Z,12.51
2023-01-17T20:54:18.324Z,12.47
2023-01-17T20:56:48.156Z,12.46
2023-01-17T20:59:20.014Z,12.36
2023-01-17T21:01:50.431Z,12.34
2023-01-17T21:04:25.895Z,12.32
2023-01-17T21:06:55.232Z,12.32
2023-01-17T21:09:23.686Z,12.38
2023-01-17T21:11:52.778Z,12.47
2023-01-17T21:14:22.476Z,12.52
2023-01-17T21:16:51.137Z,12.55
2023-01-17T21:19:21.174Z,12.58
2023-01-17T21:21:50.818Z,12.53
2023-01-17T21:24:20.475Z,12.46
2023-01-17T21:26:52.130Z,12.37
2023-01-17T21:29:20.691Z,12.29
2023-01-17T21:31:50.357Z,12.21
2023-01-17T21:34:20.889Z,12.17
2023-01-17T21:36:50.199Z,12.14
2023-01-17T21:39:21.189Z,12.15
2023-01-17T21:41:51.689Z,12.28
2023-01-17T21:44:22.565Z,12.41
2023-01-17T21:46:56.382Z,12.52
2023-01-17T21:49:24.506Z,12.56
2023-01-17T21:51:55.440Z,12.52
2023-01-17T21:54:47.016Z,12.53
2023-01-17T21:57:35.560Z,12.53
2023-01-17T22:00:08.679Z,12.57
2023-01-17T22:02:40.534Z,12.62
2023-01-17T22:05:10.273Z,12.55
2023-01-17T22:07:39.805Z,12.50
2023-01-17T22:10:08.256Z,12.34
2023-01-17T22:12:36.235Z,12.21
2023-01-17T22:15:04.780Z,12.03
2023-01-17T22:17:31.713Z,11.89
2023-01-17T22:19:58.572Z,11.74
2023-01-17T22:22:25.785Z,11.62
2023-01-17T22:24:52.869Z,11.53
2023-01-17T22:27:20.559Z,11.42
2023-01-17T22:29:48.292Z,11.38
2023-01-17T22:32:15.419Z,11.34
2023-01-17T22:34:42.375Z,11.32
2023-01-17T22:37:10.228Z,11.30
2023-01-17T22:39:38.097Z,11.26
2023-01-17T22:42:05.541Z,11.17
2023-01-17T22:44:32.560Z,11.08
2023-01-17T22:46:59.516Z,10.97
2023-01-17T22:49:26.778Z,10.93
2023-01-17T22:51:53.700Z,10.87
2023-01-17T22:54:20.659Z,10.83
2023-01-17T22:56:48.642Z,10.77
2023-01-17T22:59:15.472Z,10.74
2023-01-17T23:01:42.313Z,10.78
2023-01-17T23:04:12.990Z,10.80
2023-01-17T23:06:41.360Z,10.84
2023-01-17T23:09:11.914Z,10.87
2023-01-17T23:11:47.421Z,10.94
2023-01-17T23:14:18.755Z,10.96
2023-01-17T23:17:19.859Z,10.96
2023-01-17T23:19:52.085Z,10.88
2023-01-17T23:22:20.871Z,10.82
2023-01-17T23:25:12.326Z,10.77
2023-01-17T23:28:03.454Z,10.70
2023-01-17T23:30:35.477Z,10.55
2023-01-17T23:33:04.595Z,10.42
2023-01-17T23:35:33.555Z,10.23
2023-01-17T23:38:19.124Z,10.15
2023-01-17T23:41:05.163Z,10.03
2023-01-17T23:43:32.950Z,9.93
2023-01-17T23:45:59.962Z,9.84
2023-01-17T23:48:27.147Z,9.77
2023-01-17T23:51:08.243Z,9.68
2023-01-17T23:53:37.012Z,9.61
2023-01-17T23:56:13.858Z,9.55
2023-01-17T23:58:40.673Z,9.51
